Meteo Giornale » Osservazioni meteo Ungheria » Balaton

ore: 00:15 - Osservazioni Meteo Balaton
Lat. 46° 41' N Lon. 17° 10' E Alt. 125 metri s.l.m.

sereno Europe/Budapest

5 °C

Sereno

Temp. 24 Ore

-1 °C

20 °C

Nord/NOvest

7.4 Km/h

Dew point -1 °C

Umidità 65 %

Visibilità  9 Km

Il sole sorge alle ore 06:11

Il sole tramonta alle ore 19:33

Data e Ora Cielo e Fenomeni T °C DP °C Um. % Pres. hPa Vis. km Vento km/h
Oggi h: 00:15 sereno Sereno 5 -1 65 1025 9 N/NO 7.4
Ieri h: 23:45 sereno Sereno 5 -0 70 1025 9 N/NO 9.3
Ieri h: 23:15 sereno Sereno 6 -1 60 1025 9 N/NO 7.4
Ieri h: 22:45 sereno Sereno 7 -0 60 1025 9 NO 7.4
Ieri h: 22:15 sereno Sereno 8 -1 52 1026 9 N 7.4
Ieri h: 21:45 sereno Sereno 9 -0 53 1026 9 N 0
Ieri h: 21:15 sereno Sereno 9 -1 49 1026 9 N 1.8
Ieri h: 20:45 sereno Sereno 12 -2 37 1026 10 N 0
Ieri h: 20:15 sereno Sereno 13 -3 32 1025 9 N 0
Ieri h: 19:45 sereno Sereno 15 -3 28 1025 9 N 0
Ieri h: 19:15 sereno Sereno 17 -2 27 1025 10 N 0
Ieri h: 18:45 sereno Sereno 18 -4 22 1025 10 N 5.5
Ieri h: 17:45 sereno Sereno 19 -3 22 1026 10 E/NE 9.3
Ieri h: 16:45 sereno Sereno 20 -5 18 1026 10 N 5.5
Ieri h: 16:15 sereno Sereno 20 -4 19 1026 10 E/NE 9.3
Ieri h: 15:45 sereno Sereno 20 -3 20 1027 8 S 7.4
Ieri h: 15:15 sereno Sereno 20 -3 20 1027 9 N 5.5
Ieri h: 14:45 sereno Sereno 20 -4 19 1028 10 N 9.3
Ieri h: 14:15 sereno Sereno 19 -4 20 1028 10 N 5.5
Ieri h: 13:15 sereno Sereno 19 -5 19 1029 9 S 9.3
Ieri h: 12:45 sereno Sereno 18 -5 20 1030 10 S/SE 9.3
Ieri h: 12:15 sereno Sereno 18 -5 20 1030 10 N 3.7
Ieri h: 11:45 sereno Sereno 17 -6 20 1030 10 S 11.1
Ieri h: 11:15 sereno Sereno 16 -6 21 1031 10 S 7.4
Ieri h: 10:45 sereno Sereno 15 -4 26 1031 10 N 5.5
Ieri h: 10:15 sereno Sereno 13 -3 32 1031 9 N 3.7
Ieri h: 09:45 sereno Sereno 12 -2 37 1031 10 N 5.5
Ieri h: 09:15 sereno Sereno 10 1 53 1031 10 N 0
Ieri h: 08:45 sereno Sereno 8 2 65 1031 10 N 3.7
Ieri h: 08:15 sereno Sereno 6 -1 60 1031 10 N 0
Ieri h: 07:45 sereno Sereno 3 -3 64 1031 10 N 5.5
Ieri h: 07:15 sereno Sereno 1 -3 74 1031 9 N 5.5
Ieri h: 06:45 sereno Sereno -1 -4 80 1031 10 NO 7.4
Ieri h: 06:15 sereno Sereno -0 -5 68 1031 10 N 5.5
Ieri h: 05:45 sereno Sereno -1 -5 74 1031 10 NO 7.4
Ieri h: 05:15 sereno Sereno 0 -4 74 1031 10 N 5.5
Ieri h: 04:45 sereno Sereno 1 -4 69 1031 10 N 5.5
Ieri h: 04:15 sereno Sereno 1 -4 69 1032 10 NO 7.4
Ieri h: 03:45 sereno Sereno 1 -4 69 1032 10 N 5.5
Ieri h: 03:15 sereno Sereno 2 -4 64 1032 10 N 5.5
Ieri h: 02:45 sereno Sereno 2 -4 64 1032 10 NO 7.4
Ieri h: 02:15 sereno Sereno 2 -4 64 1032 10 NO 7.4
Ieri h: 01:45 sereno Sereno 3 -4 59 1032 10 NO 7.4